createdAt,value
2018-10-17T00:01:51.577Z,14.03
2018-10-17T00:06:44.217Z,13.95
2018-10-17T00:11:37.213Z,13.86
2018-10-17T00:16:29.944Z,13.87
2018-10-17T00:21:22.662Z,13.80
2018-10-17T00:26:15.449Z,13.75
2018-10-17T00:31:08.267Z,13.72
2018-10-17T00:36:00.833Z,13.71
2018-10-17T00:40:53.583Z,13.70
2018-10-17T00:45:46.253Z,13.65
2018-10-17T00:50:38.993Z,13.57
2018-10-17T00:55:31.811Z,13.53
2018-10-17T01:00:24.514Z,13.46
2018-10-17T01:05:17.378Z,13.37
2018-10-17T01:10:10.194Z,13.28
2018-10-17T01:15:02.934Z,13.24
2018-10-17T01:19:55.589Z,13.21
2018-10-17T01:24:48.302Z,13.17
2018-10-17T01:29:40.925Z,13.20
2018-10-17T01:34:33.569Z,13.21
2018-10-17T01:39:26.228Z,13.20
2018-10-17T01:44:18.855Z,13.16
2018-10-17T01:49:11.495Z,13.10
2018-10-17T01:54:05.195Z,13.13
2018-10-17T01:58:58.078Z,13.13
2018-10-17T02:03:50.747Z,13.08
2018-10-17T02:08:43.366Z,13.00
2018-10-17T02:13:36.009Z,12.93
2018-10-17T02:18:28.621Z,12.84
2018-10-17T02:23:21.277Z,12.72
2018-10-17T02:28:13.937Z,12.72
2018-10-17T02:33:06.605Z,12.73
2018-10-17T02:37:59.257Z,12.67
2018-10-17T02:42:52.009Z,12.62
2018-10-17T02:47:44.680Z,12.57
2018-10-17T02:52:38.886Z,12.51
2018-10-17T02:57:31.562Z,12.44
2018-10-17T03:02:24.249Z,12.39
2018-10-17T03:07:16.949Z,12.37
2018-10-17T03:12:09.622Z,12.42
2018-10-17T03:17:02.667Z,12.45
2018-10-17T03:21:55.230Z,12.43
2018-10-17T03:26:47.950Z,12.36
2018-10-17T03:31:40.760Z,12.32
2018-10-17T03:36:33.405Z,12.25
2018-10-17T03:41:26.055Z,12.18
2018-10-17T03:46:18.738Z,12.11
2018-10-17T03:51:11.631Z,12.10
2018-10-17T03:56:04.444Z,12.08
2018-10-17T04:00:57.110Z,12.01
2018-10-17T04:05:49.756Z,11.95
2018-10-17T04:10:42.557Z,11.90
2018-10-17T04:15:35.280Z,11.88
2018-10-17T04:20:27.900Z,11.85
2018-10-17T04:25:20.595Z,11.78
2018-10-17T04:30:13.343Z,11.78
2018-10-17T04:35:06.022Z,11.80
2018-10-17T04:39:58.681Z,11.81
2018-10-17T04:44:51.387Z,11.82
2018-10-17T04:49:44.235Z,11.82
2018-10-17T04:54:36.895Z,11.80
2018-10-17T04:59:29.596Z,11.75
2018-10-17T05:04:22.359Z,11.70
2018-10-17T05:09:15.250Z,11.64
2018-10-17T05:14:08.032Z,11.59
2018-10-17T05:19:00.652Z,11.54
2018-10-17T05:23:53.424Z,11.53
2018-10-17T05:28:46.238Z,11.54
2018-10-17T05:33:38.866Z,11.53
2018-10-17T05:38:31.581Z,11.49
2018-10-17T05:43:27.240Z,11.50
2018-10-17T05:48:20.147Z,11.52
2018-10-17T05:53:13.160Z,11.52
2018-10-17T05:58:06.950Z,11.53
2018-10-17T06:02:59.784Z,11.52
2018-10-17T06:07:52.478Z,11.49
2018-10-17T06:12:45.390Z,11.47
2018-10-17T06:17:38.120Z,11.46
2018-10-17T06:22:32.890Z,11.43
2018-10-17T06:27:25.789Z,11.46
2018-10-17T06:32:19.601Z,11.50
2018-10-17T06:37:12.247Z,11.52
2018-10-17T06:42:05.395Z,11.60
2018-10-17T06:46:58.204Z,11.75
2018-10-17T06:51:52.143Z,11.89
2018-10-17T06:56:44.745Z,12.04
2018-10-17T07:01:37.632Z,12.20
2018-10-17T07:06:30.574Z,12.34
2018-10-17T07:11:23.567Z,12.47
2018-10-17T07:16:18.401Z,12.61
2018-10-17T07:21:11.041Z,12.74
2018-10-17T07:26:03.722Z,12.89
2018-10-17T07:30:56.399Z,13.04
2018-10-17T07:35:49.267Z,13.31
2018-10-17T07:40:41.948Z,13.53
2018-10-17T07:45:34.619Z,13.79
2018-10-17T07:50:27.338Z,14.01
2018-10-17T07:55:20.266Z,14.20
2018-10-17T08:00:13.795Z,14.39
2018-10-17T08:05:06.468Z,14.58
2018-10-17T08:10:00.303Z,14.76
2018-10-17T08:14:53.028Z,15.07
2018-10-17T08:19:45.730Z,15.36
2018-10-17T08:24:38.444Z,15.59
2018-10-17T08:29:31.053Z,15.80
2018-10-17T08:34:23.794Z,16.10
2018-10-17T08:39:17.479Z,16.40
2018-10-17T08:44:10.173Z,16.74
2018-10-17T08:49:02.812Z,17.10
2018-10-17T08:53:55.562Z,17.45
2018-10-17T08:58:48.410Z,17.78
2018-10-17T09:03:41.129Z,18.04
2018-10-17T09:08:33.759Z,18.27
2018-10-17T09:13:26.461Z,18.57
2018-10-17T09:18:19.212Z,18.91
2018-10-17T09:23:12.101Z,19.18
2018-10-17T09:28:05.322Z,19.45
2018-10-17T09:32:57.962Z,19.74
2018-10-17T09:37:50.596Z,20.01
2018-10-17T09:42:43.258Z,20.24
2018-10-17T09:47:35.894Z,20.49
2018-10-17T09:52:28.593Z,20.72
2018-10-17T09:57:21.325Z,20.98
2018-10-17T10:02:14.058Z,21.23
2018-10-17T10:07:06.669Z,21.39
2018-10-17T10:11:59.333Z,21.60
2018-10-17T10:16:52.017Z,21.91
2018-10-17T10:21:44.654Z,22.15
2018-10-17T10:26:37.350Z,22.36
2018-10-17T10:31:30.054Z,22.43
2018-10-17T10:36:22.918Z,22.61
2018-10-17T10:41:15.559Z,22.80
2018-10-17T10:46:08.407Z,22.90
2018-10-17T10:51:01.113Z,22.88
2018-10-17T10:55:53.733Z,22.96
2018-10-17T11:00:46.386Z,23.03
2018-10-17T11:05:40.530Z,23.24
2018-10-17T11:10:33.010Z,23.41
2018-10-17T11:15:25.769Z,23.37
2018-10-17T11:20:18.494Z,23.45
2018-10-17T11:25:11.251Z,23.54
2018-10-17T11:30:04.796Z,23.78
2018-10-17T11:34:57.661Z,23.99
2018-10-17T11:39:50.544Z,24.19
2018-10-17T11:44:43.291Z,24.27
2018-10-17T11:49:36.090Z,24.23
2018-10-17T11:54:28.878Z,24.25
2018-10-17T11:59:23.616Z,24.35
2018-10-17T12:04:16.628Z,24.60
2018-10-17T12:09:09.489Z,24.78
2018-10-17T12:14:02.287Z,24.91
2018-10-17T12:18:55.260Z,25.03
2018-10-17T12:23:47.883Z,25.18
2018-10-17T12:28:40.665Z,25.33
2018-10-17T12:33:33.394Z,25.43
2018-10-17T12:38:26.113Z,25.57
2018-10-17T12:43:20.227Z,25.66
2018-10-17T12:48:12.964Z,25.65
2018-10-17T12:53:06.012Z,25.67
2018-10-17T12:57:58.507Z,25.78
2018-10-17T13:02:52.262Z,25.76
2018-10-17T13:07:45.346Z,25.79
2018-10-17T13:12:38.133Z,25.73
2018-10-17T13:17:30.832Z,25.67
2018-10-17T13:22:23.881Z,25.64
2018-10-17T13:27:16.668Z,25.56
2018-10-17T13:32:09.305Z,25.66
2018-10-17T13:37:02.027Z,25.72
2018-10-17T13:41:54.720Z,25.63
2018-10-17T13:46:47.457Z,25.71
2018-10-17T13:51:40.114Z,25.81
2018-10-17T13:56:32.750Z,25.84
2018-10-17T14:01:25.547Z,25.88
2018-10-17T14:06:18.970Z,25.89
2018-10-17T14:11:11.537Z,25.76
2018-10-17T14:16:04.871Z,25.64
2018-10-17T14:20:57.739Z,25.49
2018-10-17T14:25:50.331Z,25.36
2018-10-17T14:30:43.123Z,25.13
2018-10-17T14:35:35.914Z,24.84
2018-10-17T14:40:28.666Z,24.72
2018-10-17T14:45:21.518Z,24.58
2018-10-17T14:50:14.265Z,24.49
2018-10-17T14:55:07.438Z,24.36
2018-10-17T15:00:00.084Z,24.29
2018-10-17T15:04:52.738Z,24.21
2018-10-17T15:09:45.429Z,24.17
2018-10-17T15:14:38.071Z,24.06
2018-10-17T15:19:30.710Z,23.99
2018-10-17T15:24:23.415Z,23.92
2018-10-17T15:29:16.094Z,23.86
2018-10-17T15:34:08.872Z,23.74
2018-10-17T15:39:01.614Z,23.59
2018-10-17T15:43:55.495Z,23.41
2018-10-17T15:48:48.186Z,23.22
2018-10-17T15:53:41.209Z,23.05
2018-10-17T15:58:33.940Z,22.84
2018-10-17T16:03:26.634Z,22.66
2018-10-17T16:08:19.299Z,22.47
2018-10-17T16:13:13.014Z,22.28
2018-10-17T16:18:06.240Z,22.12
2018-10-17T16:22:59.214Z,21.96
2018-10-17T16:27:51.882Z,21.88
2018-10-17T16:32:44.526Z,21.65
2018-10-17T16:37:37.821Z,21.39
2018-10-17T16:42:30.658Z,21.17
2018-10-17T16:47:23.328Z,21.03
2018-10-17T16:52:15.981Z,20.91
2018-10-17T16:57:09.601Z,20.75
2018-10-17T17:02:02.225Z,20.59
2018-10-17T17:06:54.929Z,20.47
2018-10-17T17:11:47.635Z,20.29
2018-10-17T17:16:40.317Z,20.19
2018-10-17T17:21:32.986Z,20.09
2018-10-17T17:26:25.697Z,19.95
2018-10-17T17:31:18.329Z,19.79
2018-10-17T17:36:11.096Z,19.68
2018-10-17T17:41:06.238Z,19.59
2018-10-17T17:45:58.937Z,19.48
2018-10-17T17:50:51.642Z,19.38
2018-10-17T17:55:44.414Z,19.27
2018-10-17T18:00:37.109Z,19.21
2018-10-17T18:05:29.799Z,19.12
2018-10-17T18:10:22.514Z,19.02
2018-10-17T18:15:15.165Z,18.89
2018-10-17T18:20:07.857Z,18.78
2018-10-17T18:25:00.581Z,18.69
2018-10-17T18:29:53.413Z,18.64
2018-10-17T18:34:46.035Z,18.56
2018-10-17T18:39:38.751Z,18.48
2018-10-17T18:44:31.418Z,18.41
2018-10-17T18:49:24.217Z,18.32
2018-10-17T18:54:16.915Z,18.23
2018-10-17T18:59:09.871Z,18.19
2018-10-17T19:04:02.545Z,18.11
2018-10-17T19:08:55.207Z,18.00
2018-10-17T19:13:47.836Z,17.90
2018-10-17T19:18:40.515Z,17.84
2018-10-17T19:23:33.210Z,17.81
2018-10-17T19:28:25.917Z,17.77
2018-10-17T19:33:18.601Z,17.67
2018-10-17T19:38:11.317Z,17.58
2018-10-17T19:43:04.301Z,17.47
2018-10-17T19:47:57.129Z,17.36
2018-10-17T19:52:49.594Z,17.32
2018-10-17T19:57:42.345Z,17.24
2018-10-17T20:02:35.004Z,17.21
2018-10-17T20:07:27.794Z,17.08
2018-10-17T20:12:20.415Z,16.95
2018-10-17T20:17:13.161Z,16.86
2018-10-17T20:22:07.639Z,16.79
2018-10-17T20:27:00.347Z,16.68
2018-10-17T20:31:52.996Z,16.58
2018-10-17T20:36:45.550Z,16.49
2018-10-17T20:41:38.385Z,16.41
2018-10-17T20:46:32.505Z,16.35
2018-10-17T20:51:26.823Z,16.26
2018-10-17T20:56:19.987Z,16.19
2018-10-17T21:01:12.618Z,16.10
2018-10-17T21:06:05.323Z,16.02
2018-10-17T21:10:57.984Z,16.03
2018-10-17T21:15:50.578Z,15.98
2018-10-17T21:20:43.299Z,15.87
2018-10-17T21:25:35.929Z,15.83
2018-10-17T21:30:28.678Z,15.70
2018-10-17T21:35:21.293Z,15.68
2018-10-17T21:40:13.909Z,15.64
2018-10-17T21:45:06.769Z,15.55
2018-10-17T21:49:59.405Z,15.44
2018-10-17T21:54:53.085Z,15.35
2018-10-17T21:59:45.712Z,15.29
2018-10-17T22:04:38.386Z,15.25
2018-10-17T22:09:31.077Z,15.26
2018-10-17T22:14:23.761Z,15.23
2018-10-17T22:24:15.614Z,15.12
2018-10-17T22:29:08.278Z,15.06
2018-10-17T22:34:00.928Z,14.98
2018-10-17T22:38:53.558Z,14.90
2018-10-17T22:43:46.169Z,14.87
2018-10-17T22:48:38.864Z,14.77
2018-10-17T22:53:31.486Z,14.71
2018-10-17T22:58:24.914Z,14.67
2018-10-17T23:03:17.793Z,14.61
2018-10-17T23:08:10.575Z,14.54
2018-10-17T23:13:03.410Z,14.49
2018-10-17T23:17:56.055Z,14.43
2018-10-17T23:22:48.661Z,14.36
2018-10-17T23:27:41.327Z,14.34
2018-10-17T23:32:33.969Z,14.31
2018-10-17T23:37:26.590Z,14.30
2018-10-17T23:42:19.188Z,14.26
2018-10-17T23:47:11.776Z,14.20
2018-10-17T23:52:04.740Z,14.14
2018-10-17T23:56:57.296Z,14.11
